Evansville, Wisconsin
Current Conditions -  °F | °C
As of 9:35 PM on Saturday 24 Jan 2015 (Local Time) from KJVL Reporting Station
Scattered Clouds Scattered Clouds  
Wind Chill: 26°   Ceiling: Unl
Heat Index: 32°   Visibility: 7mi
Dew Point: 30°   Wind: 6mph
Humidity: 93%   Direction: 60°ENE
Pressure: 29.65"   Gusts: NA
Location:  42.78°N, 89.3°W
Report Text: KJVL 250335Z AUTO 06005KT 7SM SCT120 00/M01 A2965 RMK AO2
Loading
Personal Weather Stations






























Interactive Weather Map New forecast layout! Learn more

10-Day Weather Forecast

Advertisements
Track Severe Weather on mobile